METAR Germany / Deutschland - 19 Feb 2018 - 0143 UTC - RocketRoute WX - rrwx.com
EDDB 190120Z 14005KT 9999 OVC040 00/M04 Q1025 NOSIG EDDW 190120Z AUTO 18002KT 9999 // OVC140/// M00/M03 Q1023 EDDC 190120Z 16007KT CAVOK M02/M05 Q1024 EDDL 190120Z 16010KT CAVOK 01/M03 Q1023 NOSIG EDFH 190120Z 15010KT 9999 BKN010 M03/M04 Q1021 EDDF 190120Z 03002KT 9999 SCT025 M01/M03 Q1023 NOSIG EDDH 190120Z 15005KT CAVOK M00/M03 Q1022 NOSIG EDDV 190120Z 18004KT CAVOK 00/M03 Q1023 EDAH   EDSB 190120Z AUTO 04003KT 5000 // OVC028/// 00/M00 Q1022 EDVK   EDDK 190120Z 12004KT 090V150 CAVOK M01/M03 Q1023 NOSIG ETNL 190120Z 19005KT 9999 OVC100 00/M03 Q1023 BLU EDDP 190120Z 17007KT CAVOK M02/M04 Q1024 NOSIG EDHL   EDDM 190120Z 05006KT 7000 MIFG NSC M05/M06 Q1021 R88/290095 TEMPO 3000 BCFG EDDG 190120Z 14003KT 110V190 CAVOK M01/M03 Q1023 NOSIG EDDN 190120Z 09005KT CAVOK M02/M05 Q1023 R28/29//95 EDLP 190120Z VRB01KT CAVOK M00/M04 Q1023 EDDR 190120Z AUTO 09005KT 060V140 9999 // ///////// M01/M04 Q1022 EDDS 190120Z 07006KT 9999 FEW018 BKN023 M00/M02 Q1021 EDXW   EDDT 190120Z 15005KT 9999 BKN039 01/M04 Q1025

RocketRoute WX - rrwx.com weather for pilots